Time;durP1;ratioP1;P1;durP2;ratioP2;P2;SDS_P1;SDS_P2;PMS_P1;PMS_P2;Temp;Humidity;BMP_temperature;BMP_pressure;BME280_temperature;BME280_humidity;BME280_pressure;Samples;Min_cycle;Max_cycle;Signal;HPM_P1;HPM_P2
2022/01/18 00:01:56;;;;;;;23.65;12.73;;;6.20;99.90;;;;;;5073342;28;20025;-73
2022/01/18 00:04:22;;;;;;;24.60;13.25;;;6.20;99.90;;;;;;5072916;28;20028;-73
2022/01/18 00:06:51;;;;;;;28.45;13.55;;;6.30;99.90;;;;;;5073221;28;20462;-75
2022/01/18 00:09:21;;;;;;;28.13;14.38;;;6.10;99.90;;;;;;5073174;28;20479;-76
2022/01/18 00:11:55;;;;;;;25.60;12.30;;;6.00;99.90;;;;;;5064497;28;20120;-75
2022/01/18 00:14:42;;;;;;;28.52;13.88;;;6.10;99.90;;;;;;5053139;28;20032;-74
2022/01/18 00:17:19;;;;;;;29.88;15.02;;;6.30;99.90;;;;;;5053381;28;20098;-73
2022/01/18 00:19:54;;;;;;;27.10;13.05;;;6.10;99.90;;;;;;5053375;28;20017;-75
2022/01/18 00:22:21;;;;;;;29.17;14.88;;;6.30;99.90;;;;;;5037001;28;20098;-75
2022/01/18 00:24:46;;;;;;;31.50;13.60;;;6.40;99.90;;;;;;5056585;28;20028;-76
2022/01/18 00:27:15;;;;;;;25.98;13.25;;;6.30;99.90;;;;;;5056877;28;20025;-75
2022/01/18 00:35:22;;;;;;;25.98;13.48;;;6.50;99.90;;;;;;5056498;28;20040;-75
2022/01/18 00:37:54;;;;;;;29.38;14.90;;;6.60;99.90;;;;;;5056429;28;20032;-73
2022/01/18 00:40:19;;;;;;;26.50;14.30;;;6.80;99.90;;;;;;5056458;28;20414;-76
2022/01/18 00:42:45;;;;;;;30.15;16.27;;;6.80;99.90;;;;;;5056580;28;20033;-76
2022/01/18 00:45:10;;;;;;;28.92;15.60;;;6.70;99.90;;;;;;5056480;28;20051;-74
2022/01/18 00:47:36;;;;;;;25.50;13.23;;;6.80;99.90;;;;;;5056571;28;20397;-75
2022/01/18 00:50:03;;;;;;;30.42;17.33;;;6.70;99.90;;;;;;5056222;28;20036;-73
2022/01/18 00:52:34;;;;;;;31.40;18.17;;;6.80;99.90;;;;;;5056400;28;20025;-75
2022/01/18 00:55:01;;;;;;;;;;;6.70;99.90;;;;;;5038400;28;20028;-74
2022/01/18 00:57:27;;;;;;;27.45;14.98;;;6.70;99.90;;;;;;5056637;28;19904;-73
2022/01/18 00:59:53;;;;;;;26.95;14.35;;;6.80;99.90;;;;;;5056051;28;20029;-76
2022/01/18 01:02:19;;;;;;;27.83;14.35;;;6.80;99.90;;;;;;5056527;28;20021;-74
2022/01/18 01:04:49;;;;;;;25.73;13.98;;;7.00;99.90;;;;;;5037936;28;20052;-73
2022/01/18 01:07:20;;;;;;;26.40;14.43;;;7.10;99.90;;;;;;5055933;28;20514;-76
2022/01/18 01:09:47;;;;;;;26.17;14.57;;;7.20;99.90;;;;;;5055851;28;20038;-75
2022/01/18 01:12:14;;;;;;;28.52;15.38;;;7.00;99.90;;;;;;5055848;28;20045;-75
2022/01/18 01:14:42;;;;;;;26.70;15.35;;;6.90;99.90;;;;;;5055773;28;20025;-74
2022/01/18 01:17:27;;;;;;;26.70;14.45;;;7.00;99.90;;;;;;5055963;28;20028;-74
2022/01/18 01:46:27;;;;;;;24.20;12.15;;;7.90;99.90;;;;;;5054836;28;20071;-76
2022/01/18 01:48:55;;;;;;;22.73;12.73;;;8.00;99.90;;;;;;5055103;28;20021;-74
2022/01/18 01:51:28;;;;;;;23.25;13.90;;;8.00;99.90;;;;;;5055060;28;20079;-75
2022/01/18 01:53:54;;;;;;;25.95;13.50;;;8.10;99.90;;;;;;5055091;28;20021;-74
2022/01/18 01:56:20;;;;;;;24.95;13.38;;;8.10;99.90;;;;;;5054995;28;20041;-75
2022/01/18 01:58:46;;;;;;;23.08;13.18;;;8.10;99.90;;;;;;5054973;28;20100;-74
2022/01/18 02:01:11;;;;;;;22.40;13.05;;;8.10;99.90;;;;;;5055186;28;20095;-75
2022/01/18 02:03:37;;;;;;;29.23;13.93;;;8.20;99.90;;;;;;5054921;28;20495;-75
2022/01/18 02:06:03;;;;;;;23.38;12.35;;;8.20;99.90;;;;;;5054733;28;20052;-74
2022/01/18 02:08:29;;;;;;;23.05;12.70;;;8.20;99.90;;;;;;5054737;28;20487;-75
2022/01/18 02:10:55;;;;;;;23.13;13.48;;;8.20;99.90;;;;;;5054779;28;20471;-75
2022/01/18 02:13:20;;;;;;;28.92;15.40;;;8.20;99.90;;;;;;5054962;28;20029;-75
2022/01/18 02:23:56;;;;;;;26.23;13.82;;;8.20;99.90;;;;;;5054735;28;20028;-76
2022/01/18 02:26:22;;;;;;;23.27;13.73;;;8.30;99.90;;;;;;5054322;28;20029;-74
2022/01/18 02:28:48;;;;;;;25.40;14.23;;;8.30;99.90;;;;;;5054388;28;20021;-76
2022/01/18 02:31:14;;;;;;;25.67;14.48;;;8.30;99.90;;;;;;5054315;28;20056;-74
2022/01/18 02:33:40;;;;;;;26.20;12.52;;;8.20;99.90;;;;;;5054824;28;20025;-75
2022/01/18 02:36:09;;;;;;;24.95;13.30;;;8.20;99.90;;;;;;5054507;28;20025;-74
2022/01/18 02:38:35;;;;;;;23.25;13.23;;;8.00;99.90;;;;;;5054718;28;20013;-74
2022/01/18 02:41:00;;;;;;;25.30;13.10;;;8.00;99.90;;;;;;5054670;28;20078;-76
2022/01/18 02:46:11;;;;;;;25.35;14.23;;;7.40;99.90;;;;;;5053618;28;20559;-76
2022/01/18 02:48:37;;;;;;;25.95;14.85;;;7.40;99.90;;;;;;5053691;28;20021;-75
2022/01/18 02:51:04;;;;;;;23.02;13.68;;;7.40;99.90;;;;;;5053978;28;20158;-74
2022/01/18 02:53:29;;;;;;;21.85;13.10;;;7.40;99.90;;;;;;5053935;28;20084;-76
2022/01/18 02:55:57;;;;;;;26.92;15.15;;;7.40;99.90;;;;;;5053907;28;20059;-73
2022/01/18 02:58:29;;;;;;;20.90;12.32;;;7.30;99.90;;;;;;5054088;28;20108;-73
2022/01/18 03:03:35;;;;;;;23.60;13.75;;;7.20;99.90;;;;;;5053801;28;20110;-75
2022/01/18 03:06:05;;;;;;;25.90;15.52;;;7.30;99.90;;;;;;5053610;28;20060;-74
2022/01/18 03:08:33;;;;;;;24.27;13.80;;;7.20;99.90;;;;;;5053670;28;20029;-74
2022/01/18 03:11:01;;;;;;;24.40;14.85;;;7.20;99.90;;;;;;5053637;28;20035;-75
2022/01/18 03:13:27;;;;;;;26.63;15.00;;;7.30;99.90;;;;;;5053861;28;20021;-74
2022/01/18 03:15:53;;;;;;;25.75;14.68;;;7.30;99.90;;;;;;5053795;28;20371;-75
2022/01/18 03:18:19;;;;;;;24.38;14.40;;;7.30;99.90;;;;;;5053435;28;20060;-76
2022/01/18 03:20:44;;;;;;;24.65;14.75;;;7.40;99.90;;;;;;5053423;28;20033;-75
2022/01/18 03:23:16;;;;;;;26.33;14.48;;;7.40;99.90;;;;;;5035550;28;20056;-74
2022/01/18 03:25:59;;;;;;;27.73;14.20;;;7.50;99.90;;;;;;5035163;28;20107;-74
2022/01/18 03:28:26;;;;;;;25.13;14.32;;;7.50;99.90;;;;;;5053641;28;20028;-74
2022/01/18 03:30:54;;;;;;;26.58;14.55;;;7.50;99.90;;;;;;5053540;28;20025;-75
2022/01/18 03:33:22;;;;;;;28.27;14.55;;;7.40;99.90;;;;;;5053566;28;20475;-74
2022/01/18 03:35:50;;;;;;;27.95;15.43;;;7.40;99.90;;;;;;5053215;28;20387;-75
2022/01/18 03:38:17;;;;;;;25.00;14.85;;;7.30;99.90;;;;;;5053244;28;20025;-74
2022/01/18 03:40:42;;;;;;;26.05;13.93;;;7.30;99.90;;;;;;5053196;28;20076;-76
2022/01/18 03:43:12;;;;;;;25.15;14.60;;;7.40;99.90;;;;;;5053140;28;20376;-74
2022/01/18 03:45:42;;;;;;;23.30;13.68;;;7.20;99.90;;;;;;5053054;28;20036;-74
2022/01/18 03:48:14;;;;;;;25.95;15.15;;;7.20;99.90;;;;;;5053659;28;20021;-74
2022/01/18 03:50:40;;;;;;;28.33;15.95;;;7.20;99.90;;;;;;5053102;28;20491;-73
2022/01/18 03:53:06;;;;;;;25.92;16.10;;;7.00;99.90;;;;;;5053002;28;20071;-74
2022/01/18 03:55:31;;;;;;;25.67;15.55;;;6.90;99.90;;;;;;5053297;28;20104;-75
2022/01/18 03:57:57;;;;;;;26.67;14.93;;;7.00;99.90;;;;;;5056567;28;20021;-74
2022/01/18 04:00:25;;;;;;;27.90;17.83;;;7.10;99.90;;;;;;5057457;28;20106;-76
2022/01/18 04:02:52;;;;;;;22.63;13.75;;;7.10;99.90;;;;;;5057026;28;20039;-74
2022/01/18 04:05:18;;;;;;;27.73;15.88;;;7.00;99.90;;;;;;5057265;28;20083;-75
2022/01/18 04:07:44;;;;;;;25.48;15.25;;;7.00;99.90;;;;;;5039153;28;20437;-74
2022/01/18 04:10:10;;;;;;;23.02;13.85;;;6.90;99.90;;;;;;5057249;28;20100;-75
2022/01/18 04:12:36;;;;;;;23.77;13.73;;;6.80;99.90;;;;;;5056606;28;20068;-77
2022/01/18 04:15:10;;;;;;;26.77;14.15;;;6.80;99.90;;;;;;5056900;28;20029;-76
2022/01/18 04:28:30;;;;;;;26.27;14.38;;;6.90;99.90;;;;;;5056974;28;20131;-75
2022/01/18 04:30:56;;;;;;;25.77;14.38;;;7.00;99.90;;;;;;5038545;28;20049;-75
2022/01/18 04:33:21;;;;;;;22.75;13.80;;;7.00;99.90;;;;;;5056621;28;20106;-74
2022/01/18 04:35:47;;;;;;;23.67;13.20;;;7.00;99.90;;;;;;5056532;28;20082;-73
2022/01/18 04:38:13;;;;;;;25.77;14.50;;;7.00;99.90;;;;;;5056519;28;20440;-76
2022/01/18 04:40:43;;;;;;;24.35;13.95;;;7.10;99.90;;;;;;5056464;28;20033;-75
2022/01/18 04:48:28;;;;;;;26.45;15.23;;;7.10;99.90;;;;;;5056843;28;20112;-76
2022/01/18 04:51:09;;;;;;;24.60;14.25;;;7.00;99.90;;;;;;5056495;28;20079;-73
2022/01/18 04:53:38;;;;;;;26.75;15.23;;;7.00;99.90;;;;;;5056469;28;20035;-77
2022/01/18 04:56:09;;;;;;;27.03;14.97;;;7.00;99.90;;;;;;5056402;28;20021;-76
2022/01/18 04:58:35;;;;;;;29.85;16.02;;;7.10;99.90;;;;;;5056393;28;20100;-76
2022/01/18 05:01:05;;;;;;;24.75;14.50;;;7.20;99.90;;;;;;5056041;28;20040;-76
2022/01/18 05:03:31;;;;;;;26.02;14.68;;;7.30;99.90;;;;;;5056270;28;20087;-75
2022/01/18 05:06:07;;;;;;;24.60;15.38;;;7.20;99.90;;;;;;5055917;28;20433;-74
2022/01/18 05:08:33;;;;;;;28.15;16.52;;;7.10;99.90;;;;;;5037320;28;20017;-75
2022/01/18 05:10:59;;;;;;;26.73;15.68;;;7.00;99.90;;;;;;5055660;28;20395;-75
2022/01/18 05:23:51;;;;;;;22.35;13.85;;;7.10;99.90;;;;;;5055896;28;20124;-76
2022/01/18 05:26:17;;;;;;;23.10;14.32;;;7.20;99.90;;;;;;5037602;28;20124;-74
2022/01/18 05:28:43;;;;;;;23.20;14.63;;;7.20;99.90;;;;;;5055544;28;20021;-75
2022/01/18 05:31:08;;;;;;;25.80;14.63;;;7.30;99.90;;;;;;5055495;28;20025;-73
2022/01/18 05:33:34;;;;;;;27.17;15.20;;;7.20;99.90;;;;;;5055415;28;20040;-75
2022/01/18 05:36:00;;;;;;;25.55;15.07;;;7.00;99.90;;;;;;5055372;28;20104;-76
2022/01/18 05:38:26;;;;;;;30.35;15.48;;;7.00;99.90;;;;;;5055374;28;20104;-74
2022/01/18 05:40:51;;;;;;;23.88;13.45;;;6.90;99.90;;;;;;5055281;28;20025;-75
2022/01/18 05:43:18;;;;;;;25.67;16.17;;;6.80;99.90;;;;;;5055796;28;20056;-75
2022/01/18 05:45:43;;;;;;;22.85;13.48;;;6.80;99.90;;;;;;5055131;28;20111;-75
2022/01/18 05:48:09;;;;;;;25.70;14.65;;;6.80;99.90;;;;;;5055125;28;20067;-74
2022/01/18 05:50:35;;;;;;;27.50;15.75;;;7.00;99.90;;;;;;5055110;28;20033;-74
2022/01/18 05:53:01;;;;;;;25.70;15.63;;;7.00;99.90;;;;;;5055646;28;20024;-73
2022/01/18 05:55:27;;;;;;;24.88;14.40;;;7.10;99.90;;;;;;5055320;28;20107;-75
2022/01/18 05:57:53;;;;;;;26.77;14.30;;;7.10;99.90;;;;;;5055269;28;20021;-74
2022/01/18 06:00:22;;;;;;;25.15;14.43;;;7.20;99.90;;;;;;5055487;28;20112;-75
2022/01/18 06:03:01;;;;;;;21.92;14.23;;;7.10;99.90;;;;;;5054795;28;20048;-74
2022/01/18 06:08:12;;;;;;;23.38;14.15;;;7.20;99.90;;;;;;5055064;28;20036;-74
2022/01/18 06:10:38;;;;;;;24.70;13.93;;;7.30;99.90;;;;;;5054734;28;20021;-75
2022/01/18 06:13:07;;;;;;;24.40;14.23;;;7.30;99.90;;;;;;5054293;28;20045;-74
2022/01/18 06:15:33;;;;;;;26.90;14.50;;;7.20;99.90;;;;;;5054661;28;20025;-76
2022/01/18 06:17:58;;;;;;;25.63;13.55;;;7.00;99.90;;;;;;5054562;28;20025;-74
2022/01/18 06:20:25;;;;;;;25.20;14.70;;;6.90;99.90;;;;;;5054254;28;20031;-75
2022/01/18 06:22:51;;;;;;;26.08;14.40;;;6.70;99.90;;;;;;5054762;28;20103;-75
2022/01/18 06:25:18;;;;;;;22.30;13.02;;;6.80;99.90;;;;;;5054407;28;20029;-75
2022/01/18 06:27:44;;;;;;;21.40;13.35;;;6.90;99.90;;;;;;5054432;28;20063;-74
2022/01/18 06:30:10;;;;;;;25.83;14.95;;;7.00;99.90;;;;;;5054335;28;20021;-75
2022/01/18 06:32:37;;;;;;;24.38;13.85;;;7.00;99.90;;;;;;5054373;28;20513;-73
2022/01/18 06:35:04;;;;;;;23.95;13.77;;;7.10;99.90;;;;;;5036398;28;20056;-75
2022/01/18 06:37:29;;;;;;;23.30;13.52;;;7.00;99.90;;;;;;5036419;28;20394;-76
2022/01/18 06:39:57;;;;;;;29.45;14.60;;;7.00;99.90;;;;;;5054153;28;20044;-75
2022/01/18 06:42:24;;;;;;;22.98;14.18;;;7.00;99.90;;;;;;5054089;28;20059;-73
2022/01/18 06:44:50;;;;;;;24.95;13.98;;;7.00;99.90;;;;;;5036104;28;20037;-73
2022/01/18 06:47:16;;;;;;;25.02;12.95;;;7.10;99.90;;;;;;5054085;28;20096;-75
2022/01/18 06:49:42;;;;;;;25.00;13.38;;;7.20;99.90;;;;;;5036088;28;20491;-74
2022/01/18 06:52:08;;;;;;;25.55;13.73;;;7.20;99.90;;;;;;5054480;28;20021;-75
2022/01/18 06:54:33;;;;;;;20.15;12.73;;;7.20;99.90;;;;;;5036063;28;20115;-76
2022/01/18 06:56:59;;;;;;;22.08;13.40;;;7.20;99.90;;;;;;5053891;28;20021;-75
2022/01/18 06:59:25;;;;;;;20.45;12.63;;;7.30;99.90;;;;;;5053829;28;20463;-74
2022/01/18 07:01:51;;;;;;;22.88;13.52;;;7.30;99.90;;;;;;5054046;28;20422;-74
2022/01/18 07:04:16;;;;;;;25.05;12.80;;;7.20;99.90;;;;;;5053722;28;20029;-75
2022/01/18 07:06:42;;;;;;;24.00;12.55;;;7.20;99.90;;;;;;5053869;28;20021;-76
2022/01/18 07:09:08;;;;;;;25.98;13.65;;;7.20;99.90;;;;;;5053671;28;20029;-74
2022/01/18 07:11:34;;;;;;;23.52;13.10;;;7.20;99.90;;;;;;5053374;28;20524;-74
2022/01/18 07:13:59;;;;;;;24.20;13.45;;;7.30;99.90;;;;;;5053598;28;20036;-76
2022/01/18 07:16:25;;;;;;;24.13;12.77;;;7.30;99.90;;;;;;5053790;28;20043;-75
2022/01/18 07:18:51;;;;;;;26.15;13.32;;;7.30;99.90;;;;;;5053491;28;20029;-75
2022/01/18 07:21:18;;;;;;;24.33;14.00;;;7.30;99.90;;;;;;5053299;28;20560;-74
2022/01/18 07:23:43;;;;;;;27.92;15.13;;;7.30;99.90;;;;;;5053645;28;20033;-74
2022/01/18 07:26:09;;;;;;;25.42;14.57;;;7.30;99.90;;;;;;5053297;28;20029;-74
2022/01/18 07:28:35;;;;;;;25.50;15.18;;;7.30;99.90;;;;;;5053309;28;20435;-74
2022/01/18 07:31:01;;;;;;;25.60;15.70;;;7.30;99.90;;;;;;5053155;28;20025;-73
2022/01/18 07:33:26;;;;;;;27.33;15.60;;;7.20;99.90;;;;;;5053241;28;20040;-74
2022/01/18 07:35:52;;;;;;;28.45;15.90;;;7.20;99.90;;;;;;5053222;28;20063;-76
2022/01/18 07:38:18;;;;;;;32.30;17.23;;;7.10;99.90;;;;;;5053188;28;20032;-75
2022/01/18 07:40:46;;;;;;;31.40;16.42;;;6.80;99.90;;;;;;5053730;28;20029;-74
2022/01/18 07:43:16;;;;;;;75.55;42.45;;;6.40;99.90;;;;;;5035261;28;20017;-74
2022/01/18 07:45:43;;;;;;;33.30;18.30;;;6.50;99.90;;;;;;5053057;28;20025;-74
2022/01/18 07:48:09;;;;;;;27.83;16.13;;;6.60;99.90;;;;;;5053354;28;20021;-74
2022/01/18 07:50:35;;;;;;;31.25;17.45;;;6.60;99.90;;;;;;5053065;28;20021;-77
2022/01/18 07:53:00;;;;;;;30.30;16.58;;;6.40;99.90;;;;;;5063864;28;20036;-80
2022/01/18 07:55:26;;;;;;;42.63;24.10;;;6.20;99.90;;;;;;5040958;28;20124;-78
2022/01/18 07:57:54;;;;;;;34.47;19.10;;;6.10;99.90;;;;;;5069302;28;20060;-77
2022/01/18 08:00:20;;;;;;;30.52;17.75;;;5.80;99.90;;;;;;5069984;28;20028;-77
2022/01/18 08:02:46;;;;;;;31.90;17.38;;;5.70;99.90;;;;;;5057261;28;20084;-75
2022/01/18 08:05:12;;;;;;;31.05;16.60;;;5.60;99.90;;;;;;5067112;28;20029;-77
2022/01/18 08:07:38;;;;;;;30.10;15.13;;;5.60;99.90;;;;;;5053138;28;20025;-78
2022/01/18 08:10:06;;;;;;;33.47;19.75;;;5.80;99.90;;;;;;5053385;28;20027;-82
2022/01/18 08:12:31;;;;;;;32.08;18.60;;;5.60;99.90;;;;;;5059979;28;20479;-81
2022/01/18 08:15:02;;;;;;;33.35;18.42;;;5.60;99.90;;;;;;5073310;28;20052;-80
2022/01/18 08:17:29;;;;;;;35.65;17.40;;;5.50;99.90;;;;;;5071369;28;20025;-83
2022/01/18 08:19:55;;;;;;;32.40;17.77;;;5.10;99.90;;;;;;5073023;28;20021;-78
2022/01/18 08:22:21;;;;;;;37.83;19.58;;;5.20;99.90;;;;;;5073156;28;20028;-79
2022/01/18 08:24:46;;;;;;;38.03;19.30;;;5.10;99.90;;;;;;5073052;28;20092;-77
2022/01/18 08:27:12;;;;;;;43.03;20.15;;;5.10;99.90;;;;;;5087402;28;20027;-76
2022/01/18 08:29:38;;;;;;;43.72;19.55;;;5.10;99.90;;;;;;5092951;28;20031;-76
2022/01/18 08:32:07;;;;;;;34.38;19.65;;;5.00;99.90;;;;;;5087531;28;20024;-75
2022/01/18 08:34:33;;;;;;;51.30;20.58;;;4.70;99.90;;;;;;5083619;28;20036;-78
2022/01/18 08:36:59;;;;;;;35.35;18.85;;;4.60;99.90;;;;;;5072728;28;20035;-78
2022/01/18 08:39:24;;;;;;;50.75;21.10;;;4.70;99.90;;;;;;5072751;28;20494;-78
2022/01/18 08:41:50;;;;;;;37.47;20.25;;;4.70;99.90;;;;;;5073624;28;20028;-79
2022/01/18 08:44:16;;;;;;;41.95;19.58;;;4.80;99.90;;;;;;5076283;28;20107;-77
2022/01/18 08:46:42;;;;;;;47.33;22.40;;;4.70;99.90;;;;;;5076116;28;20390;-77
2022/01/18 08:49:08;;;;;;;46.78;20.65;;;4.80;99.90;;;;;;5077326;28;20031;-76
2022/01/18 08:51:34;;;;;;;46.40;22.95;;;5.00;99.90;;;;;;5077087;28;20497;-75
2022/01/18 08:54:02;;;;;;;43.92;22.00;;;4.80;99.90;;;;;;5074847;28;20536;-78
2022/01/18 08:56:29;;;;;;;44.45;21.23;;;4.90;99.90;;;;;;5078040;28;20483;-77
2022/01/18 08:58:55;;;;;;;46.03;22.17;;;5.00;99.90;;;;;;5086599;28;20056;-78
2022/01/18 09:01:21;;;;;;;42.10;21.60;;;5.40;99.90;;;;;;5081951;28;20035;-79
2022/01/18 09:03:47;;;;;;;43.05;20.95;;;5.30;99.90;;;;;;5075955;28;20021;-78
2022/01/18 09:06:14;;;;;;;46.78;22.55;;;5.40;99.90;;;;;;5076441;28;20039;-75
2022/01/18 09:08:41;;;;;;;45.83;21.55;;;5.40;99.90;;;;;;5081266;28;20542;-79
2022/01/18 09:11:10;;;;;;;43.83;20.65;;;5.50;99.90;;;;;;5076786;28;20028;-77
2022/01/18 09:13:36;;;;;;;47.28;22.20;;;5.50;99.90;;;;;;5069120;28;20025;-76
2022/01/18 09:16:02;;;;;;;46.00;21.83;;;5.70;99.90;;;;;;5056704;28;20564;-77
2022/01/18 09:18:28;;;;;;;40.63;19.13;;;5.50;99.90;;;;;;5056716;28;20040;-78
2022/01/18 09:20:54;;;;;;;44.00;21.55;;;5.70;99.90;;;;;;5056266;28;20025;-78
2022/01/18 09:23:20;;;;;;;44.60;20.13;;;5.90;99.90;;;;;;5056332;28;20057;-78
2022/01/18 09:25:46;;;;;;;40.25;19.70;;;6.00;99.90;;;;;;5064963;28;20574;-77
2022/01/18 09:28:11;;;;;;;49.97;23.38;;;6.00;99.90;;;;;;5062533;28;20027;-80
2022/01/18 09:30:38;;;;;;;41.05;21.30;;;6.00;99.90;;;;;;5053957;28;20552;-79
2022/01/18 09:33:06;;;;;;;40.45;21.50;;;5.80;99.90;;;;;;5075499;28;20047;-77
2022/01/18 09:35:33;;;;;;;43.83;21.02;;;5.50;99.90;;;;;;5061860;28;20100;-77
2022/01/18 09:37:59;;;;;;;44.70;21.75;;;5.50;99.90;;;;;;5037730;28;20048;-76
2022/01/18 09:40:25;;;;;;;43.55;19.95;;;5.60;99.90;;;;;;5065704;28;20498;-76
2022/01/18 09:42:56;;;;;;;43.40;20.35;;;5.70;99.90;;;;;;5057414;28;20028;-76
2022/01/18 09:45:24;;;;;;;44.90;19.02;;;5.70;99.90;;;;;;5055251;28;20029;-77
2022/01/18 09:47:52;;;;;;;42.80;19.80;;;5.80;99.90;;;;;;5055825;28;20032;-79
2022/01/18 09:50:23;;;;;;;35.65;19.10;;;6.00;99.90;;;;;;5065732;28;20020;-79
2022/01/18 09:52:54;;;;;;;35.70;19.23;;;6.00;99.90;;;;;;5061602;28;20040;-79
2022/01/18 09:55:23;;;;;;;37.58;17.55;;;5.90;99.90;;;;;;5064125;28;20151;-76
2022/01/18 09:57:50;;;;;;;39.35;19.75;;;5.90;99.90;;;;;;5069441;28;20024;-79
2022/01/18 10:00:17;;;;;;;41.72;19.50;;;6.00;99.90;;;;;;5049830;28;20472;-78
2022/01/18 10:02:43;;;;;;;40.90;20.38;;;5.90;99.90;;;;;;5062965;28;20108;-78
2022/01/18 10:05:34;;;;;;;44.58;20.40;;;6.00;99.90;;;;;;5055130;28;20132;-78
2022/01/18 10:08:07;;;;;;;40.78;19.23;;;6.00;99.90;;;;;;5055109;28;20045;-78
2022/01/18 10:10:37;;;;;;;36.63;19.58;;;6.00;99.90;;;;;;5055321;28;20467;-79
2022/01/18 10:13:03;;;;;;;37.30;17.90;;;6.00;99.90;;;;;;5066235;28;20068;-80
2022/01/18 10:15:29;;;;;;;43.40;19.85;;;6.10;99.90;;;;;;5073116;28;20481;-80
2022/01/18 10:18:04;;;;;;;38.85;18.88;;;6.10;99.90;;;;;;5056664;28;20123;-81
2022/01/18 10:20:30;;;;;;;37.67;17.60;;;6.20;99.90;;;;;;5072921;28;20020;-82
2022/01/18 10:22:55;;;;;;;36.70;18.88;;;6.10;99.90;;;;;;5054788;28;20040;-79
2022/01/18 10:25:23;;;;;;;40.25;20.15;;;6.20;99.90;;;;;;5061756;28;20035;-78
2022/01/18 10:27:53;;;;;;;43.13;20.05;;;6.40;99.90;;;;;;5036108;28;20040;-81
2022/01/18 10:30:31;;;;;;;39.20;20.40;;;6.40;99.90;;;;;;5036167;28;20029;-76
2022/01/18 10:33:14;;;;;;;38.28;18.52;;;6.40;99.90;;;;;;5064921;28;20508;-78
2022/01/18 10:36:12;;;;;;;33.28;17.52;;;6.40;99.90;;;;;;5061710;28;20028;-77
2022/01/18 10:38:43;;;;;;;36.53;18.35;;;6.40;99.90;;;;;;5072747;28;20426;-76
2022/01/18 10:41:41;;;;;;;35.60;18.33;;;6.50;99.90;;;;;;5074187;28;20030;-76
2022/01/18 10:44:13;;;;;;;35.42;18.88;;;6.60;99.90;;;;;;5019396;28;20044;-75
2022/01/18 10:46:48;;;;;;;36.47;17.45;;;6.60;99.90;;;;;;5074109;28;20028;-76
2022/01/18 10:49:43;;;;;;;36.65;17.80;;;6.60;99.90;;;;;;5066249;28;20033;-78
2022/01/18 10:52:14;;;;;;;37.78;18.95;;;6.70;99.90;;;;;;5054113;28;20017;-78
2022/01/18 10:54:46;;;;;;;38.05;19.90;;;7.00;99.90;;;;;;5054070;28;20025;-78
2022/01/18 10:57:33;;;;;;;34.75;17.33;;;6.80;99.90;;;;;;5072523;28;20029;-79
2022/01/18 11:00:08;;;;;;;35.70;18.90;;;6.80;99.90;;;;;;5073474;28;20021;-77
2022/01/18 11:02:42;;;;;;;35.22;18.50;;;6.80;99.90;;;;;;5054123;28;20411;-77
2022/01/18 11:05:17;;;;;;;36.13;18.02;;;6.90;99.90;;;;;;5053374;28;20036;-78
2022/01/18 11:07:45;;;;;;;37.78;18.13;;;6.70;99.90;;;;;;5064962;28;20024;-79
2022/01/18 11:10:13;;;;;;;36.17;17.67;;;6.70;99.90;;;;;;5057619;28;20151;-77
2022/01/18 11:13:04;;;;;;;33.40;15.70;;;6.70;99.90;;;;;;5053349;28;20048;-77
2022/01/18 11:15:32;;;;;;;32.78;16.10;;;7.10;99.90;;;;;;5057745;28;20537;-77
2022/01/18 11:18:04;;;;;;;36.28;17.65;;;6.90;99.90;;;;;;5073445;28;20024;-76
2022/01/18 11:20:36;;;;;;;31.92;16.38;;;6.90;99.90;;;;;;5073108;28;20023;-76
2022/01/18 11:23:05;;;;;;;31.15;15.77;;;7.00;99.90;;;;;;5055312;28;20031;-76
2022/01/18 11:25:32;;;;;;;36.28;17.38;;;7.30;99.90;;;;;;5069592;28;20036;-78
2022/01/18 11:27:59;;;;;;;37.08;17.10;;;7.30;99.90;;;;;;5056357;28;20398;-77
2022/01/18 11:30:29;;;;;;;35.08;17.58;;;7.40;99.90;;;;;;5073269;28;20063;-74
2022/01/18 11:32:56;;;;;;;34.67;17.42;;;7.10;99.90;;;;;;5053241;28;20032;-75
2022/01/18 11:36:00;;;;;;;32.65;17.33;;;7.00;99.90;;;;;;5069592;28;20044;-74
2022/01/18 11:38:25;;;;;;;36.65;18.13;;;7.00;99.90;;;;;;5072817;28;20390;-73
2022/01/18 11:40:57;;;;;;;29.63;15.27;;;6.90;99.90;;;;;;5073132;28;20033;-74
2022/01/18 11:43:51;;;;;;;32.33;15.57;;;7.00;99.90;;;;;;5073164;28;20020;-74
2022/01/18 11:46:31;;;;;;;35.90;15.93;;;7.20;99.90;;;;;;5052098;28;20032;-74
2022/01/18 11:49:18;;;;;;;;;;;7.30;99.90;;;;;;5074167;28;20016;-74
2022/01/18 11:51:49;;;;;;;35.85;17.77;;;7.40;99.90;;;;;;5072525;28;20273;-73
2022/01/18 11:57:27;;;;;;;32.15;17.30;;;7.10;99.90;;;;;;5073384;28;20535;-74
2022/01/18 11:59:58;;;;;;;28.55;15.65;;;7.20;99.90;;;;;;5057534;28;20087;-74
2022/01/18 12:02:29;;;;;;;32.55;16.13;;;7.50;99.90;;;;;;5055074;28;20094;-74
2022/01/18 12:04:57;;;;;;;;;;;7.50;99.90;;;;;;5073858;28;20039;-74
2022/01/18 12:07:34;;;;;;;33.65;17.23;;;7.50;99.90;;;;;;5072987;28;19905;-74
2022/01/18 12:10:21;;;;;;;30.17;16.08;;;7.40;99.90;;;;;;5072952;28;20024;-73
2022/01/18 12:12:52;;;;;;;30.58;15.52;;;7.70;99.90;;;;;;5071914;28;20048;-73
2022/01/18 12:15:24;;;;;;;38.17;21.23;;;7.90;99.90;;;;;;5073128;28;20058;-73
2022/01/18 12:17:55;;;;;;;24.75;12.95;;;8.00;99.90;;;;;;5074766;28;20024;-74
2022/01/18 12:20:48;;;;;;;25.25;13.35;;;7.80;99.90;;;;;;5076883;28;20028;-73
2022/01/18 12:23:32;;;;;;;27.60;13.68;;;7.20;99.90;;;;;;5072782;28;20448;-73
2022/01/18 12:26:26;;;;;;;28.10;14.75;;;7.30;99.90;;;;;;5077040;28;20025;-74
2022/01/18 12:34:30;;;;;;;25.90;13.85;;;7.40;99.90;;;;;;5076340;28;20027;-74
2022/01/18 12:37:20;;;;;;;26.75;13.05;;;7.30;99.90;;;;;;5076546;28;20394;-73
2022/01/18 12:39:53;;;;;;;27.75;13.20;;;7.40;99.90;;;;;;5076810;28;20036;-73
2022/01/18 12:45:34;;;;;;;23.48;11.77;;;7.50;99.90;;;;;;5076061;28;20383;-74
2022/01/18 12:48:02;;;;;;;23.65;12.85;;;7.70;99.90;;;;;;5056894;28;20032;-74
2022/01/18 12:50:31;;;;;;;26.10;12.10;;;7.60;99.90;;;;;;5076272;28;20028;-74
2022/01/18 12:53:14;;;;;;;21.92;11.93;;;7.60;99.90;;;;;;5058269;28;20417;-74
2022/01/18 12:56:12;;;;;;;24.13;11.75;;;7.50;99.90;;;;;;5076748;28;20032;-74
2022/01/18 12:58:45;;;;;;;19.08;10.63;;;7.60;99.90;;;;;;5021180;28;20097;-74
2022/01/18 13:01:15;;;;;;;23.38;10.55;;;7.60;99.90;;;;;;5076378;28;20028;-73
2022/01/18 13:03:47;;;;;;;17.92;10.82;;;7.40;99.90;;;;;;5076408;28;20024;-73
2022/01/18 13:06:16;;;;;;;19.40;10.73;;;7.40;99.90;;;;;;5057945;28;20379;-73
2022/01/18 13:08:54;;;;;;;20.25;11.20;;;7.40;99.90;;;;;;5075921;28;20544;-74
2022/01/18 13:11:29;;;;;;;19.13;11.27;;;7.30;99.90;;;;;;5075723;28;20039;-75
2022/01/18 13:14:07;;;;;;;20.30;11.93;;;7.30;99.90;;;;;;5072704;28;20032;-73
2022/01/18 13:27:26;;;;;;;20.75;10.70;;;7.00;99.90;;;;;;5055301;28;20108;-73
2022/01/18 13:29:54;;;;;;;20.70;10.00;;;7.00;99.90;;;;;;5055571;28;20494;-73
2022/01/18 13:32:29;;;;;;;20.17;10.43;;;7.00;99.90;;;;;;5055507;28;20025;-74
2022/01/18 13:34:58;;;;;;;17.27;9.27;;;6.90;99.90;;;;;;5037316;28;20028;-74
2022/01/18 13:37:30;;;;;;;16.88;9.50;;;7.00;99.90;;;;;;5037535;28;20368;-73
2022/01/18 13:40:02;;;;;;;22.85;9.13;;;7.10;99.90;;;;;;5055401;28;20021;-73
2022/01/18 13:42:44;;;;;;;20.80;10.85;;;7.10;99.90;;;;;;5055661;28;20048;-74
2022/01/18 13:45:24;;;;;;;18.85;10.25;;;7.20;99.90;;;;;;5055256;28;20021;-74
2022/01/18 13:47:59;;;;;;;18.85;10.55;;;7.00;99.90;;;;;;5055841;28;20155;-74
2022/01/18 13:50:36;;;;;;;18.30;9.85;;;7.10;99.90;;;;;;5055525;28;20040;-75
2022/01/18 13:53:23;;;;;;;20.10;10.32;;;7.00;99.90;;;;;;5055444;28;20112;-74
2022/01/18 13:55:53;;;;;;;19.88;10.18;;;7.00;99.90;;;;;;5055074;28;20029;-73
2022/01/18 13:58:28;;;;;;;18.42;9.90;;;7.00;99.90;;;;;;5055357;28;20115;-73
2022/01/18 14:01:17;;;;;;;19.90;10.30;;;7.00;99.90;;;;;;5055280;28;20447;-73
2022/01/18 14:03:45;;;;;;;23.38;9.90;;;7.10;99.90;;;;;;5036824;28;20029;-73
2022/01/18 14:06:13;;;;;;;19.70;10.23;;;7.20;99.90;;;;;;5054837;28;20036;-73
2022/01/18 14:08:47;;;;;;;16.13;9.40;;;7.20;99.90;;;;;;5054842;28;20523;-73
2022/01/18 14:11:17;;;;;;;18.23;10.32;;;7.10;99.90;;;;;;5054898;28;20095;-74
2022/01/18 14:13:43;;;;;;;20.30;10.82;;;7.10;99.90;;;;;;5055664;28;20070;-74
2022/01/18 14:16:30;;;;;;;18.05;9.88;;;7.20;99.90;;;;;;5054724;28;20033;-73
2022/01/18 14:18:56;;;;;;;16.20;9.80;;;7.20;99.90;;;;;;5036779;28;20033;-73
2022/01/18 14:21:33;;;;;;;23.38;11.45;;;7.20;99.90;;;;;;5054612;28;20028;-73
2022/01/18 14:24:05;;;;;;;20.48;10.25;;;7.00;99.90;;;;;;5055159;28;20057;-74
2022/01/18 14:26:31;;;;;;;18.13;10.60;;;7.00;99.90;;;;;;5054428;28;20095;-73
2022/01/18 14:29:00;;;;;;;17.55;10.00;;;7.00;99.90;;;;;;5036570;28;20483;-73